^^
Station Historical Data
 
Daily Summary for March 23, 2017 Units:  Both    English   Metric
« Previous Day
Next Day »
Daily Weekly Monthly Yearly Custom
  Current: High: Low: Average:
Temperature: 60.4 °F /  15.8 °C 62.5 °F /  16.9 °C 53.9 °F /  12.2 °C 56.2 °F /  13.4 °C
Dew Point: 50.2 °F /  10.1 °C 51.6 °F /  10.9 °C 44.6 °F /  7 °C 49.6 °F /  9.8 °C
Humidity: 69% 86% 52% 79%
Wind Speed: 5.0mph /  8km/h 5.1mph /  8.2km/h - 0.6mph /  1km/h
Wind Gust: 9.0mph /  14.5km/h 10.4mph /  16.7km/h - -
WindNW - - South
Pressure: 30.00 in /  1015.8 hPa 30.00 in /  1015.8 hPa 29.88 in /  1011.7 hPa -
Precipitation: 0.09 in /  2.29 mm      
Historical Graphs
 
 
Tabular Data for March 23, 2017
Time Temperature Dew Point Pressure Wind Wind Speed Wind Gust Humidity Rainfall Rate (Hourly) solar Conditions
00:03 62.5 °F /  16.9 °C 44.6 °F /  7 °C 29.88in /  1011.7hPa East 0.3mph /  0.5km/h 1.0mph /  1.6km/h 52% 0.00in /  0mm WeatherDisplay:10.37 W/m2 OVC
00:08 62.5 °F /  16.9 °C 45.1 °F /  7.3 °C 29.88in /  1011.7hPa East 0.1mph /  0.2km/h 2.3mph /  3.7km/h 53% 0.00in /  0mm WeatherDisplay:10.37 W/m2 OVC
00:13 62.3 °F /  16.8 °C 45.4 °F /  7.4 °C 29.90in /  1012.4hPa East 5.1mph /  8.2km/h 8.0mph /  12.9km/h 54% 0.00in /  0mm WeatherDisplay:10.37 W/m2 OVC
00:18 62.0 °F /  16.7 °C 45.6 °F /  7.6 °C 29.90in /  1012.4hPa ENE 0.9mph /  1.4km/h 1.2mph /  1.9km/h 55% 0.00in /  0mm WeatherDisplay:10.37 W/m2 OVC
00:23 61.6 °F /  16.4 °C 46.2 °F /  7.9 °C 29.90in /  1012.4hPa East 1.8mph /  2.9km/h 4.6mph /  7.4km/h 57% 0.00in /  0mm WeatherDisplay:10.37 W/m2 OVC
00:28 61.4 °F /  16.3 °C 46.5 °F /  8.1 °C 29.90in /  1012.4hPa ENE 2.5mph /  4km/h 3.5mph /  5.6km/h 58% 0.00in /  0mm WeatherDisplay:10.37 W/m2 OVC
00:34 60.9 °F /  16.1 °C 46.5 °F /  8.1 °C 29.90in /  1012.4hPa ESE 2.2mph /  3.5km/h 6.9mph /  11.1km/h 59% 0.00in /  0mm WeatherDisplay:10.37 W/m2 OVC
00:39 60.4 °F /  15.8 °C 47.7 °F /  8.7 °C 29.90in /  1012.4hPa ESE 1.3mph /  2.1km/h 2.3mph /  3.7km/h 63% 0.00in /  0mm WeatherDisplay:10.37 W/m2 OVC
00:44 59.8 °F /  15.4 °C 48.4 °F /  9.1 °C 29.91in /  1012.8hPa East 3.5mph /  5.6km/h 8.1mph /  13km/h 66% 0.00in /  0mm WeatherDisplay:10.37 W/m2 OVC
00:49 59.1 °F /  15.1 °C 48.5 °F /  9.2 °C 29.91in /  1012.8hPa ENE 2.6mph /  4.2km/h 10.4mph /  16.7km/h 68% 0.00in /  0mm WeatherDisplay:10.37 W/m2 OVC
00:54 59.0 °F /  15 °C 49.2 °F /  9.6 °C 29.91in /  1012.8hPa East 1.8mph /  2.9km/h 4.6mph /  7.4km/h 70% 0.00in /  0mm WeatherDisplay:10.37 W/m2 OVC
00:59 58.7 °F /  14.8 °C 50.1 °F /  10.1 °C 29.92in /  1013.1hPa ENE 0.9mph /  1.4km/h 6.0mph /  9.7km/h 73% 0.04in /  1.02mm WeatherDisplay:10.37 W/m2 RA
01:04 58.0 °F /  14.4 °C 50.1 °F /  10.1 °C 29.92in /  1013.1hPa East 0.7mph /  1.1km/h 3.5mph /  5.6km/h 75% 0.04in /  1.02mm WeatherDisplay:10.37 W/m2 +RA
01:09 57.4 °F /  14.1 °C 50.2 °F /  10.1 °C 29.92in /  1013.1hPa Calm     77% 0.05in /  1.27mm WeatherDisplay:10.37 W/m2 +RA
01:19 56.9 °F /  13.8 °C 50.5 °F /  10.3 °C 29.93in /  1013.4hPa Calm     79% 0.05in /  1.27mm WeatherDisplay:10.37 W/m2 +RA
01:24 56.7 °F /  13.7 °C 50.3 °F /  10.2 °C 29.93in /  1013.4hPa Calm     79% 0.05in /  1.27mm WeatherDisplay:10.37 W/m2 +RA
01:29 56.7 °F /  13.7 °C 50.6 °F /  10.3 °C 29.93in /  1013.4hPa ESE 0.7mph /  1.1km/h 2.3mph /  3.7km/h 80% 0.06in /  1.52mm WeatherDisplay:10.37 W/m2 +RA
01:34 56.5 °F /  13.6 °C 50.4 °F /  10.2 °C 29.93in /  1013.4hPa East 2.0mph /  3.2km/h 5.8mph /  9.3km/h 80% 0.06in /  1.52mm WeatherDisplay:10.37 W/m2 +RA
01:39 56.2 °F /  13.4 °C 50.1 °F /  10.1 °C 29.93in /  1013.4hPa ENE 2.7mph /  4.3km/h 6.9mph /  11.1km/h 80% 0.06in /  1.52mm WeatherDisplay:10.37 W/m2 +RA
01:44 55.9 °F /  13.3 °C 49.5 °F /  9.7 °C 29.93in /  1013.4hPa Calm     79% 0.07in /  1.78mm WeatherDisplay:10.37 W/m2 +RA
01:49 55.9 °F /  13.3 °C 49.5 °F /  9.7 °C 29.93in /  1013.4hPa Calm     79% 0.07in /  1.78mm WeatherDisplay:10.37 W/m2 +RA
01:54 55.9 °F /  13.3 °C 49.1 °F /  9.5 °C 29.93in /  1013.4hPa Calm     78% 0.07in /  1.78mm WeatherDisplay:10.37 W/m2 +RA
01:59 55.8 °F /  13.2 °C 49.0 °F /  9.4 °C 29.92in /  1013.1hPa Calm     78% 0.03in /  0.76mm WeatherDisplay:10.37 W/m2 +RA
02:05 55.8 °F /  13.2 °C 49.0 °F /  9.4 °C 29.92in /  1013.1hPa Calm     78% 0.00in /  0mm WeatherDisplay:10.37 W/m2 -DZ
02:10 55.8 °F /  13.2 °C 49.4 °F /  9.7 °C 29.92in /  1013.1hPa Calm     79% 0.02in /  0.51mm WeatherDisplay:10.37 W/m2 -DZ
02:15 55.9 °F /  13.3 °C 49.5 °F /  9.7 °C 29.91in /  1012.8hPa Calm     79% 0.00in /  0mm WeatherDisplay:10.37 W/m2 -DZ
02:20 55.7 °F /  13.2 °C 49.3 °F /  9.6 °C 29.91in /  1012.8hPa Calm     79% 0.00in /  0mm WeatherDisplay:10.37 W/m2 -DZ
02:25 55.9 °F /  13.3 °C 49.8 °F /  9.9 °C 29.91in /  1012.8hPa Calm     80% 0.00in /  0mm WeatherDisplay:10.37 W/m2 -DZ
02:30 56.0 °F /  13.3 °C 49.9 °F /  9.9 °C 29.91in /  1012.8hPa Calm     80% 0.00in /  0mm WeatherDisplay:10.37 W/m2 -DZ
02:35 56.2 °F /  13.4 °C 49.8 °F /  9.9 °C 29.91in /  1012.8hPa Calm     79% 0.00in /  0mm WeatherDisplay:10.37 W/m2 -DZ
02:40 56.4 °F /  13.6 °C 50.3 °F /  10.2 °C 29.91in /  1012.8hPa Calm     80% 0.00in /  0mm WeatherDisplay:10.37 W/m2 -DZ
02:45 56.4 °F /  13.6 °C 50.3 °F /  10.2 °C 29.90in /  1012.4hPa Calm     80% 0.00in /  0mm WeatherDisplay:10.37 W/m2 -DZ
02:50 56.2 °F /  13.4 °C 50.1 °F /  10.1 °C 29.90in /  1012.4hPa Calm     80% 0.00in /  0mm WeatherDisplay:10.37 W/m2 -DZ
02:55 56.2 °F /  13.4 °C 50.1 °F /  10.1 °C 29.90in /  1012.4hPa Calm     80% 0.00in /  0mm WeatherDisplay:10.37 W/m2 -DZ
03:00 56.1 °F /  13.4 °C 50.0 °F /  10 °C 29.91in /  1012.8hPa Calm     80% 0.00in /  0mm WeatherDisplay:10.37 W/m2 -DZ
03:05 56.2 °F /  13.4 °C 50.1 °F /  10.1 °C 29.91in /  1012.8hPa Calm     80% 0.00in /  0mm WeatherDisplay:10.37 W/m2 BKN
03:10 56.2 °F /  13.4 °C 50.1 °F /  10.1 °C 29.91in /  1012.8hPa Calm     80% 0.00in /  0mm WeatherDisplay:10.37 W/m2 BKN
03:15 56.0 °F /  13.3 °C 49.9 °F /  9.9 °C 29.91in /  1012.8hPa Calm     80% 0.00in /  0mm WeatherDisplay:10.37 W/m2 BKN
03:20 55.8 °F /  13.2 °C 49.7 °F /  9.8 °C 29.91in /  1012.8hPa Calm     80% 0.00in /  0mm WeatherDisplay:10.37 W/m2 BKN
03:25 55.3 °F /  12.9 °C 49.3 °F /  9.6 °C 29.91in /  1012.8hPa SSE 1.0mph /  1.6km/h 6.0mph /  9.7km/h 80% 0.00in /  0mm WeatherDisplay:10.37 W/m2 BKN
03:30 55.2 °F /  12.9 °C 49.2 °F /  9.6 °C 29.89in /  1012.1hPa South 2.0mph /  3.2km/h 7.0mph /  11.3km/h 80% 0.00in /  0mm WeatherDisplay:10.37 W/m2 BKN
03:35 55.1 °F /  12.8 °C 49.4 °F /  9.7 °C 29.89in /  1012.1hPa South 3.0mph /  4.8km/h 7.0mph /  11.3km/h 81% 0.00in /  0mm WeatherDisplay:10.37 W/m2 BKN
03:40 55.1 °F /  12.8 °C 49.4 °F /  9.7 °C 29.89in /  1012.1hPa Calm     81% 0.00in /  0mm WeatherDisplay:10.37 W/m2 BKN
03:45 54.9 °F /  12.7 °C 49.2 °F /  9.6 °C 29.91in /  1012.8hPa Calm     81% 0.00in /  0mm WeatherDisplay:10.37 W/m2 BKN
03:50 54.9 °F /  12.7 °C 49.2 °F /  9.6 °C 29.91in /  1012.8hPa Calm     81% 0.01in /  0.25mm WeatherDisplay:10.37 W/m2 RA
03:55 54.9 °F /  12.7 °C 49.5 °F /  9.7 °C 29.91in /  1012.8hPa Calm     82% 0.01in /  0.25mm WeatherDisplay:10.37 W/m2 RA
04:00 55.0 °F /  12.8 °C 49.6 °F /  9.8 °C 29.90in /  1012.4hPa Calm     82% 0.01in /  0.25mm WeatherDisplay:10.37 W/m2 BKN
04:05 54.9 °F /  12.7 °C 49.5 °F /  9.7 °C 29.90in /  1012.4hPa Calm     82% 0.01in /  0.25mm WeatherDisplay:10.37 W/m2 -RA
04:11 54.9 °F /  12.7 °C 49.8 °F /  9.9 °C 29.90in /  1012.4hPa Calm     83% 0.01in /  0.25mm WeatherDisplay:10.37 W/m2 -RA
04:16 54.9 °F /  12.7 °C 49.8 °F /  9.9 °C 29.91in /  1012.8hPa Calm     83% 0.02in /  0.51mm WeatherDisplay:10.37 W/m2 -RA
04:21 54.9 °F /  12.7 °C 49.8 °F /  9.9 °C 29.91in /  1012.8hPa Calm     83% 0.02in /  0.51mm WeatherDisplay:10.37 W/m2 -RA
04:26 54.8 °F /  12.7 °C 49.7 °F /  9.8 °C 29.91in /  1012.8hPa SW 3.7mph /  6km/h 5.8mph /  9.3km/h 83% 0.02in /  0.51mm WeatherDisplay:10.37 W/m2 -RA
04:31 54.8 °F /  12.7 °C 50.1 °F /  10.1 °C 29.89in /  1012.1hPa SW 4.0mph /  6.4km/h 6.0mph /  9.7km/h 84% 0.02in /  0.51mm WeatherDisplay:10.37 W/m2 -RA
04:36 54.8 °F /  12.7 °C 50.1 °F /  10.1 °C 29.89in /  1012.1hPa Calm     84% 0.02in /  0.51mm WeatherDisplay:10.37 W/m2 -RA
04:41 54.6 °F /  12.6 °C 49.9 °F /  9.9 °C 29.89in /  1012.1hPa Calm     84% 0.02in /  0.51mm WeatherDisplay:10.37 W/m2 -RA
04:46 54.4 °F /  12.4 °C 49.7 °F /  9.8 °C 29.90in /  1012.4hPa Calm     84% 0.02in /  0.51mm WeatherDisplay:10.37 W/m2 -RA
04:51 54.4 °F /  12.4 °C 49.7 °F /  9.8 °C 29.90in /  1012.4hPa Calm     84% 0.01in /  0.25mm WeatherDisplay:10.37 W/m2 -RA
04:56 54.4 °F /  12.4 °C 49.7 °F /  9.8 °C 29.90in /  1012.4hPa Calm     84% 0.01in /  0.25mm WeatherDisplay:10.37 W/m2 -RA
05:01 54.5 °F /  12.5 °C 49.8 °F /  9.9 °C 29.90in /  1012.4hPa Calm     84% 0.01in /  0.25mm WeatherDisplay:10.37 W/m2 FEW
05:06 54.3 °F /  12.4 °C 49.6 °F /  9.8 °C 29.90in /  1012.4hPa Calm     84% 0.01in /  0.25mm WeatherDisplay:10.37 W/m2 FEW
05:11 54.2 °F /  12.3 °C 49.5 °F /  9.7 °C 29.90in /  1012.4hPa Calm     84% 0.01in /  0.25mm WeatherDisplay:10.37 W/m2 FEW
05:17 54.1 °F /  12.3 °C 49.4 °F /  9.7 °C 29.88in /  1011.7hPa Calm     84% 0.00in /  0mm WeatherDisplay:10.37 W/m2 FEW
05:22 54.1 °F /  12.3 °C 49.4 °F /  9.7 °C 29.88in /  1011.7hPa Calm     84% 0.00in /  0mm WeatherDisplay:10.37 W/m2 FEW
05:27 54.0 °F /  12.2 °C 49.3 °F /  9.6 °C 29.88in /  1011.7hPa Calm     84% 0.00in /  0mm WeatherDisplay:10.37 W/m2 FEW
05:32 54.0 °F /  12.2 °C 49.3 °F /  9.6 °C 29.89in /  1012.1hPa Calm     84% 0.00in /  0mm WeatherDisplay:10.37 W/m2 FEW
05:37 54.0 °F /  12.2 °C 49.3 °F /  9.6 °C 29.89in /  1012.1hPa Calm     84% 0.00in /  0mm WeatherDisplay:10.37 W/m2 FEW
05:42 54.1 °F /  12.3 °C 49.4 °F /  9.7 °C 29.89in /  1012.1hPa Calm     84% 0.00in /  0mm WeatherDisplay:10.37 W/m2 FEW
05:47 54.2 °F /  12.3 °C 49.8 °F /  9.9 °C 29.91in /  1012.8hPa Calm     85% 0.00in /  0mm WeatherDisplay:10.37 W/m2 FEW
05:52 54.2 °F /  12.3 °C 49.8 °F /  9.9 °C 29.91in /  1012.8hPa Calm     85% 0.00in /  0mm WeatherDisplay:10.37 W/m2 FEW
05:57 54.2 °F /  12.3 °C 49.8 °F /  9.9 °C 29.92in /  1013.1hPa Calm     85% 0.00in /  0mm WeatherDisplay:10.37 W/m2 FEW
06:03 54.2 °F /  12.3 °C 49.8 °F /  9.9 °C 29.92in /  1013.1hPa Calm     85% 0.00in /  0mm WeatherDisplay:10.37 W/m2 CLR
06:08 54.3 °F /  12.4 °C 49.9 °F /  9.9 °C 29.92in /  1013.1hPa Calm     85% 0.00in /  0mm WeatherDisplay:10.37 W/m2 CLR
06:13 54.1 °F /  12.3 °C 49.7 °F /  9.8 °C 29.93in /  1013.4hPa Calm     85% 0.00in /  0mm WeatherDisplay:10.37 W/m2 CLR
06:18 54.1 °F /  12.3 °C 49.7 °F /  9.8 °C 29.93in /  1013.4hPa Calm     85% 0.00in /  0mm WeatherDisplay:10.37 W/m2 CLR
06:23 53.9 °F /  12.2 °C 49.5 °F /  9.7 °C 29.93in /  1013.4hPa Calm     85% 0.00in /  0mm WeatherDisplay:10.37 W/m2 CLR
06:28 54.0 °F /  12.2 °C 49.6 °F /  9.8 °C 29.95in /  1014.1hPa Calm     85% 0.00in /  0mm WeatherDisplay:10.37 W/m2 CLR
06:33 54.0 °F /  12.2 °C 49.9 °F /  9.9 °C 29.95in /  1014.1hPa Calm     86% 0.00in /  0mm WeatherDisplay:10.37 W/m2 CLR
06:38 54.1 °F /  12.3 °C 50.0 °F /  10 °C 29.95in /  1014.1hPa Calm     86% 0.00in /  0mm WeatherDisplay:10.37 W/m2 CLR
06:43 54.2 °F /  12.3 °C 50.1 °F /  10.1 °C 29.95in /  1014.1hPa Calm     86% 0.00in /  0mm WeatherDisplay:10.37 W/m2 CLR
06:48 54.1 °F /  12.3 °C 50.0 °F /  10 °C 29.95in /  1014.1hPa Calm     86% 0.00in /  0mm WeatherDisplay:10.37 W/m2 CLR
06:53 54.1 °F /  12.3 °C 49.7 °F /  9.8 °C 29.95in /  1014.1hPa Calm     85% 0.00in /  0mm WeatherDisplay:10.37 W/m2 CLR
06:58 54.1 °F /  12.3 °C 49.7 °F /  9.8 °C 29.95in /  1014.1hPa Calm     85% 0.00in /  0mm WeatherDisplay:10.37 W/m2 CLR
07:03 54.0 °F /  12.2 °C 49.9 °F /  9.9 °C 29.95in /  1014.1hPa Calm     86% 0.00in /  0mm WeatherDisplay:10.37 W/m2 OVC
07:08 54.0 °F /  12.2 °C 49.9 °F /  9.9 °C 29.95in /  1014.1hPa Calm     86% 0.00in /  0mm WeatherDisplay:10.37 W/m2 OVC
07:14 54.2 °F /  12.3 °C 50.1 °F /  10.1 °C 29.97in /  1014.8hPa Calm     86% 0.00in /  0mm WeatherDisplay:10.37 W/m2 OVC
07:19 54.3 °F /  12.4 °C 50.2 °F /  10.1 °C 29.97in /  1014.8hPa Calm     86% 0.00in /  0mm WeatherDisplay:10.37 W/m2 OVC
07:24 54.5 °F /  12.5 °C 50.4 °F /  10.2 °C 29.97in /  1014.8hPa Calm     86% 0.00in /  0mm WeatherDisplay:10.37 W/m2 OVC
07:29 54.8 °F /  12.7 °C 50.7 °F /  10.4 °C 29.97in /  1014.8hPa Calm     86% 0.00in /  0mm WeatherDisplay:10.37 W/m2 OVC
07:34 54.7 °F /  12.6 °C 50.3 °F /  10.2 °C 29.97in /  1014.8hPa Calm     85% 0.00in /  0mm WeatherDisplay:10.37 W/m2 OVC
07:39 55.0 °F /  12.8 °C 50.6 °F /  10.3 °C 29.97in /  1014.8hPa Calm     85% 0.00in /  0mm WeatherDisplay:10.37 W/m2 OVC
07:44 55.3 °F /  12.9 °C 50.5 °F /  10.3 °C 29.98in /  1015.1hPa Calm     84% 0.00in /  0mm WeatherDisplay:10.37 W/m2 OVC
07:49 55.8 °F /  13.2 °C 51.0 °F /  10.6 °C 29.98in /  1015.1hPa Calm     84% 0.00in /  0mm WeatherDisplay:10.37 W/m2 OVC
07:54 56.3 °F /  13.5 °C 51.5 °F /  10.8 °C 29.98in /  1015.1hPa Calm   1.2mph /  1.9km/h 84% 0.00in /  0mm WeatherDisplay:10.37 W/m2 OVC
07:59 56.6 °F /  13.7 °C 51.5 °F /  10.8 °C 29.97in /  1014.8hPa Calm     83% 0.00in /  0mm WeatherDisplay:10.37 W/m2 OVC
08:05 56.8 °F /  13.8 °C 51.4 °F /  10.8 °C 29.97in /  1014.8hPa Calm     82% 0.00in /  0mm WeatherDisplay:10.37 W/m2 BKN
08:10 57.0 °F /  13.9 °C 51.6 °F /  10.9 °C 29.97in /  1014.8hPa Calm     82% 0.00in /  0mm WeatherDisplay:10.37 W/m2 BKN
08:15 56.9 °F /  13.8 °C 50.8 °F /  10.4 °C 29.98in /  1015.1hPa Calm   5.0mph /  8km/h 80% 0.00in /  0mm WeatherDisplay:10.37 W/m2 BKN
08:20 57.0 °F /  13.9 °C 50.9 °F /  10.5 °C 29.98in /  1015.1hPa Calm     80% 0.00in /  0mm WeatherDisplay:10.37 W/m2 BKN
08:25 57.0 °F /  13.9 °C 50.5 °F /  10.3 °C 29.98in /  1015.1hPa NW 1.0mph /  1.6km/h 5.0mph /  8km/h 79% 0.00in /  0mm WeatherDisplay:10.37 W/m2 BKN
08:30 57.0 °F /  13.9 °C 50.5 °F /  10.3 °C 29.99in /  1015.5hPa NW 1.0mph /  1.6km/h 7.0mph /  11.3km/h 79% 0.00in /  0mm WeatherDisplay:10.37 W/m2 BKN
08:35 57.0 °F /  13.9 °C 50.2 °F /  10.1 °C 29.99in /  1015.5hPa Calm   6.0mph /  9.7km/h 78% 0.00in /  0mm WeatherDisplay:10.37 W/m2 BKN
08:40 57.5 °F /  14.2 °C 50.0 °F /  10 °C 29.99in /  1015.5hPa Calm   5.0mph /  8km/h 76% 0.00in /  0mm WeatherDisplay:10.37 W/m2 BKN
08:45 58.2 °F /  14.6 °C 50.7 °F /  10.4 °C 29.99in /  1015.5hPa NNW 1.6mph /  2.6km/h 6.0mph /  9.7km/h 76% 0.00in /  0mm WeatherDisplay:10.37 W/m2 BKN
08:50 58.4 °F /  14.7 °C 49.8 °F /  9.9 °C 29.99in /  1015.5hPa NNW 3.0mph /  4.8km/h 8.0mph /  12.9km/h 73% 0.00in /  0mm WeatherDisplay:10.37 W/m2 BKN
08:55 58.4 °F /  14.7 °C 49.4 °F /  9.7 °C 29.99in /  1015.5hPa NNW 1.0mph /  1.6km/h 7.0mph /  11.3km/h 72% 0.00in /  0mm WeatherDisplay:10.37 W/m2 BKN
09:00 58.4 °F /  14.7 °C 49.0 °F /  9.4 °C 29.99in /  1015.5hPa North 1.0mph /  1.6km/h 7.0mph /  11.3km/h 71% 0.00in /  0mm WeatherDisplay:10.37 W/m2 BKN
09:05 58.3 °F /  14.6 °C 49.3 °F /  9.6 °C 29.99in /  1015.5hPa Calm   8.0mph /  12.9km/h 72% 0.00in /  0mm WeatherDisplay:10.37 W/m2 SCT
09:10 59.0 °F /  15 °C 49.6 °F /  9.8 °C 29.99in /  1015.5hPa NW 2.0mph /  3.2km/h 6.0mph /  9.7km/h 71% 0.00in /  0mm WeatherDisplay:10.37 W/m2 SCT
09:15 59.4 °F /  15.2 °C 50.0 °F /  10 °C 30.00in /  1015.8hPa NW 3.0mph /  4.8km/h 8.0mph /  12.9km/h 71% 0.00in /  0mm WeatherDisplay:10.37 W/m2 SCT
09:20 59.8 °F /  15.4 °C 49.6 °F /  9.8 °C 30.00in /  1015.8hPa NW 1.0mph /  1.6km/h 9.0mph /  14.5km/h 69% 0.00in /  0mm WeatherDisplay:10.37 W/m2 SCT
09:25 60.4 °F /  15.8 °C 50.2 °F /  10.1 °C 30.00in /  1015.8hPa NW 5.0mph /  8km/h 9.0mph /  14.5km/h 69% 0.00in /  0mm WeatherDisplay:10.37 W/m2 SCT
Youngtown, Arizona, USA
Compliments of Weather Underground - 2.5 mb